Accueil
METAR-TAF:

METAR-TAF

Aéroports :

Aéroport international de Gold Coast

Coolangatta, Australie

latitude: 28-10S, longitude: 153-30E, altitude: 6 m

Observation

Le bulletin a été fait il y a 14 minutes, à 06:00 UTC
Vent 15 kt de nord
Température 29°C
Humidité 70%
Pression 1011 hPa
Visibilité 10 km ou plus

METAR: YBCG 230600Z AUTO 01015KT 9999 // NCD 29/23 Q1011

Heure: 16:14 (06:14 UTC)

Prévision

Le bulletin a été fait il y a 48 minutes, à 05:26 UTC
Prévision valable du 23 à 06 UTC au 24 à 06 UTC
Vent 14 kt de nord/nord-est
Visibilité 10 km ou plus
Quelques nuages à une hauteur de 4000 ft
A partir de 23 à 1100 UTC
Vent 8 kt de nord/nord-ouest
Visibilité 10 km ou plus
Quelques nuages à une hauteur de 2000 ft
A partir de 24 à 0200 UTC
Vent 14 kt de nord/nord-est
Visibilité 10 km ou plus
Quelques nuages à une hauteur de 4000 ft

TAF: YBCG 230526Z 2306/2406 03014KT 9999 FEW040 FM231100 34008KT 9999 FEW020 FM240200 02014KT 9999 FEW040

Observations et prévisions météorologiques de plus de 4000 aéroports (messages METAR et TAF).

Les stations disponibles sont représentées par des disques jaunes et rouges sur la carte.

Passer la souris dessus pour voir le nom de la station.

Cliquer dessus pour voir les observations et prévisions météorologiques.

Pour changer de carte: cliquez sur les boutons verts avec une croix noire pour zoomer, sur le bouton vert avec un tiret pour effectuer un zoom arrière, ou sur les flèches vertes pour les cartes adjacentes.


METAR-TAF: